sensor_id;sensor_type;location;lat;lon;timestamp;temperature;humidity
10417;DHT22;62605;49.432;8.680;2023-12-28T00:00:23;8.00;99.90
10417;DHT22;62605;49.432;8.680;2023-12-28T00:02:51;8.10;99.90
10417;DHT22;62605;49.432;8.680;2023-12-28T00:05:18;8.20;99.90
10417;DHT22;62605;49.432;8.680;2023-12-28T00:07:52;8.30;99.90
10417;DHT22;62605;49.432;8.680;2023-12-28T00:10:26;8.30;99.90
10417;DHT22;62605;49.432;8.680;2023-12-28T00:12:56;8.20;99.90
10417;DHT22;62605;49.432;8.680;2023-12-28T00:15:23;8.20;99.90
10417;DHT22;62605;49.432;8.680;2023-12-28T00:17:53;8.20;99.90
10417;DHT22;62605;49.432;8.680;2023-12-28T00:20:20;8.10;99.90
10417;DHT22;62605;49.432;8.680;2023-12-28T00:22:48;8.20;99.90
10417;DHT22;62605;49.432;8.680;2023-12-28T00:25:15;8.20;99.90
10417;DHT22;62605;49.432;8.680;2023-12-28T00:27:44;8.40;99.90
10417;DHT22;62605;49.432;8.680;2023-12-28T00:30:14;8.30;99.90
10417;DHT22;62605;49.432;8.680;2023-12-28T00:32:42;8.10;99.90
10417;DHT22;62605;49.432;8.680;2023-12-28T00:35:13;8.10;99.90
10417;DHT22;62605;49.432;8.680;2023-12-28T00:37:50;8.10;99.90
10417;DHT22;62605;49.432;8.680;2023-12-28T00:40:28;7.90;99.90
10417;DHT22;62605;49.432;8.680;2023-12-28T00:42:59;8.00;99.90
10417;DHT22;62605;49.432;8.680;2023-12-28T00:45:39;7.90;99.90
10417;DHT22;62605;49.432;8.680;2023-12-28T00:48:13;7.80;99.90
10417;DHT22;62605;49.432;8.680;2023-12-28T00:51:21;8.00;99.90
10417;DHT22;62605;49.432;8.680;2023-12-28T00:53:39;8.00;99.90
10417;DHT22;62605;49.432;8.680;2023-12-28T00:56:07;8.00;99.90
10417;DHT22;62605;49.432;8.680;2023-12-28T00:58:44;8.00;99.90
10417;DHT22;62605;49.432;8.680;2023-12-28T01:01:12;8.00;99.90
10417;DHT22;62605;49.432;8.680;2023-12-28T01:03:42;8.00;99.90
10417;DHT22;62605;49.432;8.680;2023-12-28T01:06:10;8.10;99.90
10417;DHT22;62605;49.432;8.680;2023-12-28T01:08:37;8.20;99.90
10417;DHT22;62605;49.432;8.680;2023-12-28T01:11:08;8.10;99.90
10417;DHT22;62605;49.432;8.680;2023-12-28T01:13:41;8.10;99.90
10417;DHT22;62605;49.432;8.680;2023-12-28T01:16:12;8.10;99.90
10417;DHT22;62605;49.432;8.680;2023-12-28T01:18:49;8.20;99.90
10417;DHT22;62605;49.432;8.680;2023-12-28T01:21:19;8.50;99.90
10417;DHT22;62605;49.432;8.680;2023-12-28T01:23:51;8.40;99.90
10417;DHT22;62605;49.432;8.680;2023-12-28T01:26:21;8.30;99.90
10417;DHT22;62605;49.432;8.680;2023-12-28T01:28:50;8.30;99.90
10417;DHT22;62605;49.432;8.680;2023-12-28T01:31:21;8.30;99.90
10417;DHT22;62605;49.432;8.680;2023-12-28T01:33:49;8.30;99.90
10417;DHT22;62605;49.432;8.680;2023-12-28T01:36:19;8.40;99.90
10417;DHT22;62605;49.432;8.680;2023-12-28T01:38:48;8.40;99.90
10417;DHT22;62605;49.432;8.680;2023-12-28T01:41:16;8.50;99.90
10417;DHT22;62605;49.432;8.680;2023-12-28T01:43:45;8.80;99.90
10417;DHT22;62605;49.432;8.680;2023-12-28T01:46:18;8.80;99.90
10417;DHT22;62605;49.432;8.680;2023-12-28T01:48:48;9.00;99.90
10417;DHT22;62605;49.432;8.680;2023-12-28T01:51:16;8.90;99.90
10417;DHT22;62605;49.432;8.680;2023-12-28T01:53:44;8.80;99.90
10417;DHT22;62605;49.432;8.680;2023-12-28T01:56:12;8.80;99.90
10417;DHT22;62605;49.432;8.680;2023-12-28T01:58:42;9.20;99.90
10417;DHT22;62605;49.432;8.680;2023-12-28T02:01:14;9.50;1.00
10417;DHT22;62605;49.432;8.680;2023-12-28T02:03:41;9.60;1.00
10417;DHT22;62605;49.432;8.680;2023-12-28T02:06:09;9.50;99.90
10417;DHT22;62605;49.432;8.680;2023-12-28T02:08:38;9.50;99.90
10417;DHT22;62605;49.432;8.680;2023-12-28T02:11:05;9.60;99.90
10417;DHT22;62605;49.432;8.680;2023-12-28T02:13:33;9.60;99.90
10417;DHT22;62605;49.432;8.680;2023-12-28T02:16:06;9.50;99.90
10417;DHT22;62605;49.432;8.680;2023-12-28T02:18:41;9.50;99.90
10417;DHT22;62605;49.432;8.680;2023-12-28T02:21:11;9.40;99.90
10417;DHT22;62605;49.432;8.680;2023-12-28T02:23:39;9.40;99.90
10417;DHT22;62605;49.432;8.680;2023-12-28T02:26:09;9.30;99.90
10417;DHT22;62605;49.432;8.680;2023-12-28T02:28:37;9.20;99.90
10417;DHT22;62605;49.432;8.680;2023-12-28T02:31:06;9.30;99.90
10417;DHT22;62605;49.432;8.680;2023-12-28T02:33:38;9.20;99.90
10417;DHT22;62605;49.432;8.680;2023-12-28T02:36:11;9.30;99.90
10417;DHT22;62605;49.432;8.680;2023-12-28T02:38:39;9.30;99.90
10417;DHT22;62605;49.432;8.680;2023-12-28T02:41:10;9.30;99.90
10417;DHT22;62605;49.432;8.680;2023-12-28T02:43:38;9.20;99.90
10417;DHT22;62605;49.432;8.680;2023-12-28T02:46:05;9.30;99.90
10417;DHT22;62605;49.432;8.680;2023-12-28T02:48:33;9.30;99.90
10417;DHT22;62605;49.432;8.680;2023-12-28T02:51:01;9.30;99.90
10417;DHT22;62605;49.432;8.680;2023-12-28T02:53:29;9.30;99.90
10417;DHT22;62605;49.432;8.680;2023-12-28T02:55:56;9.40;99.90
10417;DHT22;62605;49.432;8.680;2023-12-28T02:58:24;9.30;99.90
10417;DHT22;62605;49.432;8.680;2023-12-28T03:00:52;9.30;99.90
10417;DHT22;62605;49.432;8.680;2023-12-28T03:03:19;9.30;99.90
10417;DHT22;62605;49.432;8.680;2023-12-28T03:05:46;9.30;99.90
10417;DHT22;62605;49.432;8.680;2023-12-28T03:08:13;9.30;99.90
10417;DHT22;62605;49.432;8.680;2023-12-28T03:10:40;9.30;99.90
10417;DHT22;62605;49.432;8.680;2023-12-28T03:13:08;9.30;99.90
10417;DHT22;62605;49.432;8.680;2023-12-28T03:15:36;9.30;99.90
10417;DHT22;62605;49.432;8.680;2023-12-28T03:18:04;9.30;99.90
10417;DHT22;62605;49.432;8.680;2023-12-28T03:20:31;9.20;99.90
10417;DHT22;62605;49.432;8.680;2023-12-28T03:23:01;9.20;99.90
10417;DHT22;62605;49.432;8.680;2023-12-28T03:28:41;9.20;99.90
10417;DHT22;62605;49.432;8.680;2023-12-28T03:31:10;9.20;99.90
10417;DHT22;62605;49.432;8.680;2023-12-28T03:33:39;9.20;99.90
10417;DHT22;62605;49.432;8.680;2023-12-28T03:36:07;9.20;99.90
10417;DHT22;62605;49.432;8.680;2023-12-28T03:38:34;9.20;99.90
10417;DHT22;62605;49.432;8.680;2023-12-28T03:41:01;9.20;99.90
10417;DHT22;62605;49.432;8.680;2023-12-28T03:43:29;9.30;99.90
10417;DHT22;62605;49.432;8.680;2023-12-28T03:45:56;9.30;99.90
10417;DHT22;62605;49.432;8.680;2023-12-28T03:48:25;9.30;99.90
10417;DHT22;62605;49.432;8.680;2023-12-28T03:50:53;9.30;99.90
10417;DHT22;62605;49.432;8.680;2023-12-28T03:53:20;9.30;99.90
10417;DHT22;62605;49.432;8.680;2023-12-28T03:55:48;9.30;99.90
10417;DHT22;62605;49.432;8.680;2023-12-28T03:58:15;9.40;99.90
10417;DHT22;62605;49.432;8.680;2023-12-28T04:00:42;9.40;99.90
10417;DHT22;62605;49.432;8.680;2023-12-28T04:03:09;9.30;99.90
10417;DHT22;62605;49.432;8.680;2023-12-28T04:05:38;9.30;99.90
10417;DHT22;62605;49.432;8.680;2023-12-28T04:08:06;9.30;99.90
10417;DHT22;62605;49.432;8.680;2023-12-28T04:10:34;9.40;99.90
10417;DHT22;62605;49.432;8.680;2023-12-28T04:13:03;9.40;99.90
10417;DHT22;62605;49.432;8.680;2023-12-28T04:15:31;9.40;99.90
10417;DHT22;62605;49.432;8.680;2023-12-28T04:17:58;9.40;99.90
10417;DHT22;62605;49.432;8.680;2023-12-28T04:20:26;9.40;99.90
10417;DHT22;62605;49.432;8.680;2023-12-28T04:22:54;9.50;99.90
10417;DHT22;62605;49.432;8.680;2023-12-28T04:25:22;9.50;99.90
10417;DHT22;62605;49.432;8.680;2023-12-28T04:27:51;9.50;99.90
10417;DHT22;62605;49.432;8.680;2023-12-28T04:30:19;9.50;99.90
10417;DHT22;62605;49.432;8.680;2023-12-28T04:32:46;9.50;99.90
10417;DHT22;62605;49.432;8.680;2023-12-28T04:35:14;9.50;99.90
10417;DHT22;62605;49.432;8.680;2023-12-28T04:37:41;9.50;99.90
10417;DHT22;62605;49.432;8.680;2023-12-28T04:40:10;9.50;99.90
10417;DHT22;62605;49.432;8.680;2023-12-28T04:42:40;9.50;99.90
10417;DHT22;62605;49.432;8.680;2023-12-28T04:45:08;9.50;99.90
10417;DHT22;62605;49.432;8.680;2023-12-28T04:47:35;9.50;99.90
10417;DHT22;62605;49.432;8.680;2023-12-28T04:50:03;9.50;99.90
10417;DHT22;62605;49.432;8.680;2023-12-28T04:52:31;9.50;99.90
10417;DHT22;62605;49.432;8.680;2023-12-28T04:54:59;9.60;99.90
10417;DHT22;62605;49.432;8.680;2023-12-28T04:57:28;9.50;99.90
10417;DHT22;62605;49.432;8.680;2023-12-28T04:59:56;9.60;99.90
10417;DHT22;62605;49.432;8.680;2023-12-28T05:02:23;9.60;99.90
10417;DHT22;62605;49.432;8.680;2023-12-28T05:04:51;9.70;99.90
10417;DHT22;62605;49.432;8.680;2023-12-28T05:07:18;9.70;99.90
10417;DHT22;62605;49.432;8.680;2023-12-28T05:09:46;9.70;99.90
10417;DHT22;62605;49.432;8.680;2023-12-28T05:12:13;9.70;99.90
10417;DHT22;62605;49.432;8.680;2023-12-28T05:14:41;9.60;99.90
10417;DHT22;62605;49.432;8.680;2023-12-28T05:17:09;9.50;99.90
10417;DHT22;62605;49.432;8.680;2023-12-28T05:19:36;9.50;99.90
10417;DHT22;62605;49.432;8.680;2023-12-28T05:22:05;9.60;99.90
10417;DHT22;62605;49.432;8.680;2023-12-28T05:24:34;9.60;99.90
10417;DHT22;62605;49.432;8.680;2023-12-28T05:27:03;9.60;99.90
10417;DHT22;62605;49.432;8.680;2023-12-28T05:29:31;9.60;99.90
10417;DHT22;62605;49.432;8.680;2023-12-28T05:31:59;9.50;99.90
10417;DHT22;62605;49.432;8.680;2023-12-28T05:34:29;9.50;99.90
10417;DHT22;62605;49.432;8.680;2023-12-28T05:36:56;9.50;99.90
10417;DHT22;62605;49.432;8.680;2023-12-28T05:39:25;9.40;99.90
10417;DHT22;62605;49.432;8.680;2023-12-28T05:41:59;9.40;99.90
10417;DHT22;62605;49.432;8.680;2023-12-28T05:44:36;9.40;99.90
10417;DHT22;62605;49.432;8.680;2023-12-28T05:47:05;9.40;99.90
10417;DHT22;62605;49.432;8.680;2023-12-28T05:49:34;9.40;99.90
10417;DHT22;62605;49.432;8.680;2023-12-28T05:52:01;9.30;99.90
10417;DHT22;62605;49.432;8.680;2023-12-28T05:54:29;9.30;99.90
10417;DHT22;62605;49.432;8.680;2023-12-28T05:56:56;9.20;99.90
10417;DHT22;62605;49.432;8.680;2023-12-28T05:59:25;9.20;1.00
10417;DHT22;62605;49.432;8.680;2023-12-28T06:01:52;9.20;1.00
10417;DHT22;62605;49.432;8.680;2023-12-28T06:04:22;9.10;1.00
10417;DHT22;62605;49.432;8.680;2023-12-28T06:06:50;9.10;1.00
10417;DHT22;62605;49.432;8.680;2023-12-28T06:09:17;9.10;1.00
10417;DHT22;62605;49.432;8.680;2023-12-28T06:11:44;9.10;1.00
10417;DHT22;62605;49.432;8.680;2023-12-28T06:14:12;9.10;1.00
10417;DHT22;62605;49.432;8.680;2023-12-28T06:16:39;9.10;99.90
10417;DHT22;62605;49.432;8.680;2023-12-28T06:19:07;9.10;1.00
10417;DHT22;62605;49.432;8.680;2023-12-28T06:21:37;9.10;1.00
10417;DHT22;62605;49.432;8.680;2023-12-28T06:24:05;9.10;1.00
10417;DHT22;62605;49.432;8.680;2023-12-28T06:26:32;9.10;1.00
10417;DHT22;62605;49.432;8.680;2023-12-28T06:29:00;9.10;1.00
10417;DHT22;62605;49.432;8.680;2023-12-28T06:31:27;9.10;1.00
10417;DHT22;62605;49.432;8.680;2023-12-28T06:33:55;9.10;1.00
10417;DHT22;62605;49.432;8.680;2023-12-28T06:36:22;9.10;1.00
10417;DHT22;62605;49.432;8.680;2023-12-28T06:38:54;9.10;1.00
10417;DHT22;62605;49.432;8.680;2023-12-28T06:41:23;9.10;1.00
10417;DHT22;62605;49.432;8.680;2023-12-28T06:43:52;9.20;74.00
10417;DHT22;62605;49.432;8.680;2023-12-28T06:46:20;9.30;1.00
10417;DHT22;62605;49.432;8.680;2023-12-28T06:48:54;9.20;99.90
10417;DHT22;62605;49.432;8.680;2023-12-28T06:51:25;9.20;99.90
10417;DHT22;62605;49.432;8.680;2023-12-28T06:53:54;9.30;99.90
10417;DHT22;62605;49.432;8.680;2023-12-28T06:56:23;9.20;1.00
10417;DHT22;62605;49.432;8.680;2023-12-28T06:58:51;9.20;99.90
10417;DHT22;62605;49.432;8.680;2023-12-28T07:01:18;9.20;99.90
10417;DHT22;62605;49.432;8.680;2023-12-28T07:03:46;9.20;1.00
10417;DHT22;62605;49.432;8.680;2023-12-28T07:06:14;9.20;1.00
10417;DHT22;62605;49.432;8.680;2023-12-28T07:08:42;9.20;1.00
10417;DHT22;62605;49.432;8.680;2023-12-28T07:11:12;9.20;86.50
10417;DHT22;62605;49.432;8.680;2023-12-28T07:13:43;9.20;99.90
10417;DHT22;62605;49.432;8.680;2023-12-28T07:16:11;9.20;99.90
10417;DHT22;62605;49.432;8.680;2023-12-28T07:18:38;9.20;1.00
10417;DHT22;62605;49.432;8.680;2023-12-28T07:21:25;9.20;99.90
10417;DHT22;62605;49.432;8.680;2023-12-28T07:24:33;9.20;1.00
10417;DHT22;62605;49.432;8.680;2023-12-28T07:27:04;9.20;99.90
10417;DHT22;62605;49.432;8.680;2023-12-28T07:29:32;9.20;1.00
10417;DHT22;62605;49.432;8.680;2023-12-28T07:31:59;9.20;99.90
10417;DHT22;62605;49.432;8.680;2023-12-28T07:34:26;9.20;1.00
10417;DHT22;62605;49.432;8.680;2023-12-28T07:36:53;9.20;99.90
10417;DHT22;62605;49.432;8.680;2023-12-28T07:39:20;9.30;1.00
10417;DHT22;62605;49.432;8.680;2023-12-28T07:41:47;9.30;1.00
10417;DHT22;62605;49.432;8.680;2023-12-28T07:44:19;9.30;99.90
10417;DHT22;62605;49.432;8.680;2023-12-28T07:46:46;9.30;1.00
10417;DHT22;62605;49.432;8.680;2023-12-28T07:49:14;9.30;1.00
10417;DHT22;62605;49.432;8.680;2023-12-28T07:51:41;9.30;99.90
10417;DHT22;62605;49.432;8.680;2023-12-28T07:54:08;9.30;99.90
10417;DHT22;62605;49.432;8.680;2023-12-28T07:56:35;9.40;1.00
10417;DHT22;62605;49.432;8.680;2023-12-28T07:59:02;9.40;1.00
10417;DHT22;62605;49.432;8.680;2023-12-28T08:01:34;9.40;1.00
10417;DHT22;62605;49.432;8.680;2023-12-28T08:04:01;9.40;99.90
10417;DHT22;62605;49.432;8.680;2023-12-28T08:06:29;9.40;99.90
10417;DHT22;62605;49.432;8.680;2023-12-28T08:08:57;9.50;1.00
10417;DHT22;62605;49.432;8.680;2023-12-28T08:11:26;9.50;1.00
10417;DHT22;62605;49.432;8.680;2023-12-28T08:13:53;9.50;1.00
10417;DHT22;62605;49.432;8.680;2023-12-28T08:16:20;9.50;1.00
10417;DHT22;62605;49.432;8.680;2023-12-28T08:18:49;9.60;1.00
10417;DHT22;62605;49.432;8.680;2023-12-28T08:21:16;9.70;1.00
10417;DHT22;62605;49.432;8.680;2023-12-28T08:23:43;9.90;99.90
10417;DHT22;62605;49.432;8.680;2023-12-28T08:26:10;9.90;93.10
10417;DHT22;62605;49.432;8.680;2023-12-28T08:28:37;9.90;1.00
10417;DHT22;62605;49.432;8.680;2023-12-28T08:31:04;10.00;1.00
10417;DHT22;62605;49.432;8.680;2023-12-28T08:33:33;9.90;99.90
10417;DHT22;62605;49.432;8.680;2023-12-28T08:36:03;9.90;1.00
10417;DHT22;62605;49.432;8.680;2023-12-28T08:38:30;10.00;1.00
10417;DHT22;62605;49.432;8.680;2023-12-28T08:40:57;10.00;99.90
10417;DHT22;62605;49.432;8.680;2023-12-28T08:43:24;9.90;1.00
10417;DHT22;62605;49.432;8.680;2023-12-28T08:45:55;9.90;99.90
10417;DHT22;62605;49.432;8.680;2023-12-28T08:48:22;9.90;99.90
10417;DHT22;62605;49.432;8.680;2023-12-28T08:50:49;9.90;1.00
10417;DHT22;62605;49.432;8.680;2023-12-28T08:53:18;9.80;1.00
10417;DHT22;62605;49.432;8.680;2023-12-28T08:55:45;9.90;1.00
10417;DHT22;62605;49.432;8.680;2023-12-28T08:58:12;9.90;99.90
10417;DHT22;62605;49.432;8.680;2023-12-28T09:00:39;9.80;1.00
10417;DHT22;62605;49.432;8.680;2023-12-28T09:03:07;9.70;1.00
10417;DHT22;62605;49.432;8.680;2023-12-28T09:05:34;9.80;1.00
10417;DHT22;62605;49.432;8.680;2023-12-28T09:08:02;9.80;1.00
10417;DHT22;62605;49.432;8.680;2023-12-28T09:10:30;9.80;1.00
10417;DHT22;62605;49.432;8.680;2023-12-28T09:12:58;9.90;99.90
10417;DHT22;62605;49.432;8.680;2023-12-28T09:15:25;9.90;1.00
10417;DHT22;62605;49.432;8.680;2023-12-28T09:17:52;9.90;99.90
10417;DHT22;62605;49.432;8.680;2023-12-28T09:20:20;9.90;1.00
10417;DHT22;62605;49.432;8.680;2023-12-28T09:22:47;9.90;1.00
10417;DHT22;62605;49.432;8.680;2023-12-28T09:25:19;9.90;99.90
10417;DHT22;62605;49.432;8.680;2023-12-28T09:27:47;9.90;99.90
10417;DHT22;62605;49.432;8.680;2023-12-28T09:30:18;9.90;1.00
10417;DHT22;62605;49.432;8.680;2023-12-28T09:32:45;9.90;99.90
10417;DHT22;62605;49.432;8.680;2023-12-28T09:35:12;9.90;1.00
10417;DHT22;62605;49.432;8.680;2023-12-28T09:37:39;9.90;1.00
10417;DHT22;62605;49.432;8.680;2023-12-28T09:40:10;9.90;1.00
10417;DHT22;62605;49.432;8.680;2023-12-28T09:42:43;9.90;99.90
10417;DHT22;62605;49.432;8.680;2023-12-28T09:45:14;9.80;99.90
10417;DHT22;62605;49.432;8.680;2023-12-28T09:47:42;9.70;1.00
10417;DHT22;62605;49.432;8.680;2023-12-28T09:50:13;9.80;1.00
10417;DHT22;62605;49.432;8.680;2023-12-28T09:52:42;9.70;1.00
10417;DHT22;62605;49.432;8.680;2023-12-28T09:55:09;9.70;1.00
10417;DHT22;62605;49.432;8.680;2023-12-28T09:57:37;9.60;1.00
10417;DHT22;62605;49.432;8.680;2023-12-28T10:00:06;9.60;99.90
10417;DHT22;62605;49.432;8.680;2023-12-28T10:02:35;9.50;99.90
10417;DHT22;62605;49.432;8.680;2023-12-28T10:05:05;9.50;99.90
10417;DHT22;62605;49.432;8.680;2023-12-28T10:07:35;9.50;1.00
10417;DHT22;62605;49.432;8.680;2023-12-28T10:10:07;9.50;1.00
10417;DHT22;62605;49.432;8.680;2023-12-28T10:12:35;9.50;1.00
10417;DHT22;62605;49.432;8.680;2023-12-28T10:15:03;9.50;1.00
10417;DHT22;62605;49.432;8.680;2023-12-28T10:17:32;9.50;99.90
10417;DHT22;62605;49.432;8.680;2023-12-28T10:20:00;9.50;1.00
10417;DHT22;62605;49.432;8.680;2023-12-28T10:22:30;9.50;1.00
10417;DHT22;62605;49.432;8.680;2023-12-28T10:24:59;9.50;1.00
10417;DHT22;62605;49.432;8.680;2023-12-28T10:27:26;9.50;90.50
10417;DHT22;62605;49.432;8.680;2023-12-28T10:29:54;9.60;1.00
10417;DHT22;62605;49.432;8.680;2023-12-28T10:32:22;9.60;1.00
10417;DHT22;62605;49.432;8.680;2023-12-28T10:34:51;9.60;1.00
10417;DHT22;62605;49.432;8.680;2023-12-28T10:37:21;9.70;1.00
10417;DHT22;62605;49.432;8.680;2023-12-28T10:39:53;9.70;99.90
10417;DHT22;62605;49.432;8.680;2023-12-28T10:42:28;9.80;1.00
10417;DHT22;62605;49.432;8.680;2023-12-28T10:45:02;9.80;1.00
10417;DHT22;62605;49.432;8.680;2023-12-28T10:47:32;9.80;1.00
10417;DHT22;62605;49.432;8.680;2023-12-28T10:50:03;9.90;99.90
10417;DHT22;62605;49.432;8.680;2023-12-28T10:52:33;9.90;99.90
10417;DHT22;62605;49.432;8.680;2023-12-28T10:55:16;9.90;99.90
10417;DHT22;62605;49.432;8.680;2023-12-28T10:57:54;9.90;99.90
10417;DHT22;62605;49.432;8.680;2023-12-28T11:00:25;10.00;1.00
10417;DHT22;62605;49.432;8.680;2023-12-28T11:02:57;10.00;99.90
10417;DHT22;62605;49.432;8.680;2023-12-28T11:05:25;10.00;1.00
10417;DHT22;62605;49.432;8.680;2023-12-28T11:07:55;10.10;99.90
10417;DHT22;62605;49.432;8.680;2023-12-28T11:10:24;10.00;99.90
10417;DHT22;62605;49.432;8.680;2023-12-28T11:12:52;10.00;99.90
10417;DHT22;62605;49.432;8.680;2023-12-28T11:15:21;10.00;1.00
10417;DHT22;62605;49.432;8.680;2023-12-28T11:17:49;10.10;1.00
10417;DHT22;62605;49.432;8.680;2023-12-28T11:20:16;10.10;1.00
10417;DHT22;62605;49.432;8.680;2023-12-28T11:22:44;10.10;99.90
10417;DHT22;62605;49.432;8.680;2023-12-28T11:25:17;10.10;99.90
10417;DHT22;62605;49.432;8.680;2023-12-28T11:27:44;10.00;99.90
10417;DHT22;62605;49.432;8.680;2023-12-28T11:30:12;9.90;99.90
10417;DHT22;62605;49.432;8.680;2023-12-28T11:32:41;9.90;99.90
10417;DHT22;62605;49.432;8.680;2023-12-28T11:35:11;9.90;99.90
10417;DHT22;62605;49.432;8.680;2023-12-28T11:37:41;10.00;26.70
10417;DHT22;62605;49.432;8.680;2023-12-28T11:40:11;9.90;1.00
10417;DHT22;62605;49.432;8.680;2023-12-28T11:42:50;9.80;99.90
10417;DHT22;62605;49.432;8.680;2023-12-28T11:45:18;9.70;99.90
10417;DHT22;62605;49.432;8.680;2023-12-28T11:47:45;9.80;99.90
10417;DHT22;62605;49.432;8.680;2023-12-28T11:50:13;9.70;61.60
10417;DHT22;62605;49.432;8.680;2023-12-28T11:52:40;9.70;99.90
10417;DHT22;62605;49.432;8.680;2023-12-28T11:55:07;9.70;99.90
10417;DHT22;62605;49.432;8.680;2023-12-28T11:57:37;9.50;99.90
10417;DHT22;62605;49.432;8.680;2023-12-28T12:00:07;9.50;1.00
10417;DHT22;62605;49.432;8.680;2023-12-28T12:02:35;9.40;99.90
10417;DHT22;62605;49.432;8.680;2023-12-28T12:05:02;9.40;1.00
10417;DHT22;62605;49.432;8.680;2023-12-28T12:07:29;9.40;99.90
10417;DHT22;62605;49.432;8.680;2023-12-28T12:09:57;9.30;1.00
10417;DHT22;62605;49.432;8.680;2023-12-28T12:12:25;9.30;1.00
10417;DHT22;62605;49.432;8.680;2023-12-28T12:14:52;9.30;99.90
10417;DHT22;62605;49.432;8.680;2023-12-28T12:17:21;9.20;99.90
10417;DHT22;62605;49.432;8.680;2023-12-28T12:19:48;9.20;99.90
10417;DHT22;62605;49.432;8.680;2023-12-28T12:22:16;9.10;99.90
10417;DHT22;62605;49.432;8.680;2023-12-28T12:24:45;9.10;99.90
10417;DHT22;62605;49.432;8.680;2023-12-28T12:27:14;9.10;99.90
10417;DHT22;62605;49.432;8.680;2023-12-28T12:29:41;9.10;99.90
10417;DHT22;62605;49.432;8.680;2023-12-28T12:32:08;9.00;99.90
10417;DHT22;62605;49.432;8.680;2023-12-28T12:34:38;9.00;25.90
10417;DHT22;62605;49.432;8.680;2023-12-28T12:37:05;9.10;99.90
10417;DHT22;62605;49.432;8.680;2023-12-28T12:39:35;9.00;99.90
10417;DHT22;62605;49.432;8.680;2023-12-28T12:42:03;9.00;99.90
10417;DHT22;62605;49.432;8.680;2023-12-28T12:44:30;9.00;99.90
10417;DHT22;62605;49.432;8.680;2023-12-28T12:46:58;8.90;99.90
10417;DHT22;62605;49.432;8.680;2023-12-28T12:49:26;9.00;99.90
10417;DHT22;62605;49.432;8.680;2023-12-28T12:51:54;9.00;99.90
10417;DHT22;62605;49.432;8.680;2023-12-28T12:54:23;9.00;99.90
10417;DHT22;62605;49.432;8.680;2023-12-28T12:56:50;9.00;99.90
10417;DHT22;62605;49.432;8.680;2023-12-28T12:59:21;8.90;99.90
10417;DHT22;62605;49.432;8.680;2023-12-28T13:01:48;8.90;99.90
10417;DHT22;62605;49.432;8.680;2023-12-28T13:04:16;8.90;99.90
10417;DHT22;62605;49.432;8.680;2023-12-28T13:06:43;9.00;99.90
10417;DHT22;62605;49.432;8.680;2023-12-28T13:09:12;9.00;99.90
10417;DHT22;62605;49.432;8.680;2023-12-28T13:11:39;9.00;99.90
10417;DHT22;62605;49.432;8.680;2023-12-28T13:14:06;9.10;99.90
10417;DHT22;62605;49.432;8.680;2023-12-28T13:16:33;9.10;99.90
10417;DHT22;62605;49.432;8.680;2023-12-28T13:19:00;9.00;99.90
10417;DHT22;62605;49.432;8.680;2023-12-28T13:21:27;9.10;99.90
10417;DHT22;62605;49.432;8.680;2023-12-28T13:23:54;9.00;99.90
10417;DHT22;62605;49.432;8.680;2023-12-28T13:26:24;9.00;99.90
10417;DHT22;62605;49.432;8.680;2023-12-28T13:28:51;9.00;99.90
10417;DHT22;62605;49.432;8.680;2023-12-28T13:31:18;9.00;99.90
10417;DHT22;62605;49.432;8.680;2023-12-28T13:33:45;9.00;99.90
10417;DHT22;62605;49.432;8.680;2023-12-28T13:36:12;9.10;99.90
10417;DHT22;62605;49.432;8.680;2023-12-28T13:38:39;9.20;99.90
10417;DHT22;62605;49.432;8.680;2023-12-28T13:41:06;9.10;99.90
10417;DHT22;62605;49.432;8.680;2023-12-28T13:43:34;9.20;99.90
10417;DHT22;62605;49.432;8.680;2023-12-28T13:46:01;9.30;99.90
10417;DHT22;62605;49.432;8.680;2023-12-28T13:48:29;9.20;99.90
10417;DHT22;62605;49.432;8.680;2023-12-28T13:50:56;9.30;99.90
10417;DHT22;62605;49.432;8.680;2023-12-28T13:53:23;9.30;99.90
10417;DHT22;62605;49.432;8.680;2023-12-28T13:55:50;9.40;99.90
10417;DHT22;62605;49.432;8.680;2023-12-28T13:58:17;9.30;99.90
10417;DHT22;62605;49.432;8.680;2023-12-28T14:00:45;9.40;99.90
10417;DHT22;62605;49.432;8.680;2023-12-28T14:03:13;9.40;99.90
10417;DHT22;62605;49.432;8.680;2023-12-28T14:05:40;9.40;99.90
10417;DHT22;62605;49.432;8.680;2023-12-28T14:08:08;9.40;99.90
10417;DHT22;62605;49.432;8.680;2023-12-28T14:10:35;9.40;99.90
10417;DHT22;62605;49.432;8.680;2023-12-28T14:13:05;9.40;99.90
10417;DHT22;62605;49.432;8.680;2023-12-28T14:15:32;9.30;99.90
10417;DHT22;62605;49.432;8.680;2023-12-28T14:18:00;9.40;99.90
10417;DHT22;62605;49.432;8.680;2023-12-28T14:20:30;9.40;99.90
10417;DHT22;62605;49.432;8.680;2023-12-28T14:22:58;9.30;99.90
10417;DHT22;62605;49.432;8.680;2023-12-28T14:25:27;9.30;99.90
10417;DHT22;62605;49.432;8.680;2023-12-28T14:27:54;9.30;99.90
10417;DHT22;62605;49.432;8.680;2023-12-28T14:30:22;9.30;99.90
10417;DHT22;62605;49.432;8.680;2023-12-28T14:32:50;9.20;99.90
10417;DHT22;62605;49.432;8.680;2023-12-28T14:35:19;9.20;99.90
10417;DHT22;62605;49.432;8.680;2023-12-28T14:37:46;9.20;99.90
10417;DHT22;62605;49.432;8.680;2023-12-28T14:40:14;9.20;99.90
10417;DHT22;62605;49.432;8.680;2023-12-28T14:42:41;9.20;99.90
10417;DHT22;62605;49.432;8.680;2023-12-28T14:45:09;9.20;99.90
10417;DHT22;62605;49.432;8.680;2023-12-28T14:47:36;9.20;99.90
10417;DHT22;62605;49.432;8.680;2023-12-28T14:50:04;9.20;99.90
10417;DHT22;62605;49.432;8.680;2023-12-28T14:52:33;9.30;99.90
10417;DHT22;62605;49.432;8.680;2023-12-28T14:55:04;9.30;99.90
10417;DHT22;62605;49.432;8.680;2023-12-28T14:57:31;9.30;99.90
10417;DHT22;62605;49.432;8.680;2023-12-28T14:59:58;9.20;99.90
10417;DHT22;62605;49.432;8.680;2023-12-28T15:02:25;9.20;99.90
10417;DHT22;62605;49.432;8.680;2023-12-28T15:04:52;9.30;99.90
10417;DHT22;62605;49.432;8.680;2023-12-28T15:07:21;9.30;99.90
10417;DHT22;62605;49.432;8.680;2023-12-28T15:09:50;9.30;99.90
10417;DHT22;62605;49.432;8.680;2023-12-28T15:12:19;9.30;99.90
10417;DHT22;62605;49.432;8.680;2023-12-28T15:14:47;9.30;99.90
10417;DHT22;62605;49.432;8.680;2023-12-28T15:17:14;9.30;99.90
10417;DHT22;62605;49.432;8.680;2023-12-28T15:19:42;9.30;99.90
10417;DHT22;62605;49.432;8.680;2023-12-28T15:22:09;9.20;99.90
10417;DHT22;62605;49.432;8.680;2023-12-28T15:24:38;9.20;99.90
10417;DHT22;62605;49.432;8.680;2023-12-28T15:27:06;9.20;99.90
10417;DHT22;62605;49.432;8.680;2023-12-28T15:29:33;9.20;99.90
10417;DHT22;62605;49.432;8.680;2023-12-28T15:32:01;9.20;99.90
10417;DHT22;62605;49.432;8.680;2023-12-28T15:34:28;9.20;99.90
10417;DHT22;62605;49.432;8.680;2023-12-28T15:36:56;9.20;99.90
10417;DHT22;62605;49.432;8.680;2023-12-28T15:39:23;9.10;99.90
10417;DHT22;62605;49.432;8.680;2023-12-28T15:41:50;9.00;99.90
10417;DHT22;62605;49.432;8.680;2023-12-28T15:44:19;8.90;99.90
10417;DHT22;62605;49.432;8.680;2023-12-28T15:46:46;8.90;99.90
10417;DHT22;62605;49.432;8.680;2023-12-28T15:49:13;8.90;99.90
10417;DHT22;62605;49.432;8.680;2023-12-28T15:51:40;8.90;99.90
10417;DHT22;62605;49.432;8.680;2023-12-28T15:54:07;8.90;99.90
10417;DHT22;62605;49.432;8.680;2023-12-28T15:56:34;8.90;99.90
10417;DHT22;62605;49.432;8.680;2023-12-28T15:59:01;8.90;99.90
10417;DHT22;62605;49.432;8.680;2023-12-28T16:01:30;8.90;99.90